sensor_id;sensor_type;location;lat;lon;timestamp;temperature;humidity
12520;DHT22;6325;49.540;8.364;2023-03-04T00:01:34;1.00;99.90
12520;DHT22;6325;49.540;8.364;2023-03-04T00:04:01;1.60;99.90
12520;DHT22;6325;49.540;8.364;2023-03-04T00:06:29;1.30;99.90
12520;DHT22;6325;49.540;8.364;2023-03-04T00:08:56;1.60;99.90
12520;DHT22;6325;49.540;8.364;2023-03-04T00:11:24;1.50;99.90
12520;DHT22;6325;49.540;8.364;2023-03-04T00:13:52;1.40;99.90
12520;DHT22;6325;49.540;8.364;2023-03-04T00:16:19;1.40;99.90
12520;DHT22;6325;49.540;8.364;2023-03-04T00:18:45;1.60;99.90
12520;DHT22;6325;49.540;8.364;2023-03-04T00:21:12;1.10;99.90
12520;DHT22;6325;49.540;8.364;2023-03-04T00:23:39;1.70;99.90
12520;DHT22;6325;49.540;8.364;2023-03-04T00:26:07;1.60;99.90
12520;DHT22;6325;49.540;8.364;2023-03-04T00:28:36;1.20;99.90
12520;DHT22;6325;49.540;8.364;2023-03-04T00:31:04;1.10;99.90
12520;DHT22;6325;49.540;8.364;2023-03-04T00:33:30;1.90;99.90
12520;DHT22;6325;49.540;8.364;2023-03-04T00:35:57;1.40;99.90
12520;DHT22;6325;49.540;8.364;2023-03-04T00:38:24;1.10;99.90
12520;DHT22;6325;49.540;8.364;2023-03-04T00:40:51;1.40;99.90
12520;DHT22;6325;49.540;8.364;2023-03-04T00:43:18;1.50;99.90
12520;DHT22;6325;49.540;8.364;2023-03-04T00:45:47;1.80;99.90
12520;DHT22;6325;49.540;8.364;2023-03-04T00:48:14;1.40;99.90
12520;DHT22;6325;49.540;8.364;2023-03-04T00:50:42;1.50;99.90
12520;DHT22;6325;49.540;8.364;2023-03-04T00:53:09;1.60;99.90
12520;DHT22;6325;49.540;8.364;2023-03-04T00:55:36;1.10;99.90
12520;DHT22;6325;49.540;8.364;2023-03-04T00:58:03;1.40;99.90
12520;DHT22;6325;49.540;8.364;2023-03-04T01:00:30;1.50;99.90
12520;DHT22;6325;49.540;8.364;2023-03-04T01:02:58;1.30;99.90
12520;DHT22;6325;49.540;8.364;2023-03-04T01:05:25;1.20;99.90
12520;DHT22;6325;49.540;8.364;2023-03-04T01:07:52;1.60;99.90
12520;DHT22;6325;49.540;8.364;2023-03-04T01:10:19;1.30;99.90
12520;DHT22;6325;49.540;8.364;2023-03-04T01:12:46;1.10;99.90
12520;DHT22;6325;49.540;8.364;2023-03-04T01:15:13;1.10;99.90
12520;DHT22;6325;49.540;8.364;2023-03-04T01:17:40;0.50;99.90
12520;DHT22;6325;49.540;8.364;2023-03-04T01:20:11;1.90;99.90
12520;DHT22;6325;49.540;8.364;2023-03-04T01:22:39;1.30;99.90
12520;DHT22;6325;49.540;8.364;2023-03-04T01:25:07;1.10;99.90
12520;DHT22;6325;49.540;8.364;2023-03-04T01:27:33;0.30;99.90
12520;DHT22;6325;49.540;8.364;2023-03-04T01:30:02;1.10;99.90
12520;DHT22;6325;49.540;8.364;2023-03-04T01:32:29;1.30;99.90
12520;DHT22;6325;49.540;8.364;2023-03-04T01:34:56;1.30;99.90
12520;DHT22;6325;49.540;8.364;2023-03-04T01:37:24;1.00;99.90
12520;DHT22;6325;49.540;8.364;2023-03-04T01:39:51;1.10;99.90
12520;DHT22;6325;49.540;8.364;2023-03-04T01:42:20;0.30;99.90
12520;DHT22;6325;49.540;8.364;2023-03-04T01:44:48;1.10;99.90
12520;DHT22;6325;49.540;8.364;2023-03-04T01:47:16;0.70;99.90
12520;DHT22;6325;49.540;8.364;2023-03-04T01:49:44;1.10;99.90
12520;DHT22;6325;49.540;8.364;2023-03-04T01:52:12;0.90;99.90
12520;DHT22;6325;49.540;8.364;2023-03-04T01:54:41;1.00;99.90
12520;DHT22;6325;49.540;8.364;2023-03-04T01:57:15;0.80;99.90
12520;DHT22;6325;49.540;8.364;2023-03-04T01:59:43;0.20;99.90
12520;DHT22;6325;49.540;8.364;2023-03-04T02:02:10;0.90;99.90
12520;DHT22;6325;49.540;8.364;2023-03-04T02:04:38;0.90;99.90
12520;DHT22;6325;49.540;8.364;2023-03-04T02:07:06;0.60;99.90
12520;DHT22;6325;49.540;8.364;2023-03-04T02:09:33;0.50;99.90
12520;DHT22;6325;49.540;8.364;2023-03-04T02:12:03;0.50;99.90
12520;DHT22;6325;49.540;8.364;2023-03-04T02:14:30;0.50;99.90
12520;DHT22;6325;49.540;8.364;2023-03-04T02:16:57;0.80;99.90
12520;DHT22;6325;49.540;8.364;2023-03-04T02:19:38;0.70;99.90
12520;DHT22;6325;49.540;8.364;2023-03-04T02:22:07;0.70;99.90
12520;DHT22;6325;49.540;8.364;2023-03-04T02:24:38;0.70;99.90
12520;DHT22;6325;49.540;8.364;2023-03-04T02:27:08;0.60;99.90
12520;DHT22;6325;49.540;8.364;2023-03-04T02:29:35;0.50;99.90
12520;DHT22;6325;49.540;8.364;2023-03-04T02:32:02;0.10;99.90
12520;DHT22;6325;49.540;8.364;2023-03-04T02:34:32;0.70;99.90
12520;DHT22;6325;49.540;8.364;2023-03-04T02:37:00;0.40;99.90
12520;DHT22;6325;49.540;8.364;2023-03-04T02:39:30;0.70;99.90
12520;DHT22;6325;49.540;8.364;2023-03-04T02:42:06;0.40;99.90
12520;DHT22;6325;49.540;8.364;2023-03-04T02:44:36;-0.10;99.90
12520;DHT22;6325;49.540;8.364;2023-03-04T02:47:05;0.10;99.90
12520;DHT22;6325;49.540;8.364;2023-03-04T02:49:33;1.00;99.90
12520;DHT22;6325;49.540;8.364;2023-03-04T02:52:03;0.40;99.90
12520;DHT22;6325;49.540;8.364;2023-03-04T02:54:31;0.30;99.90
12520;DHT22;6325;49.540;8.364;2023-03-04T02:57:00;0.40;99.90
12520;DHT22;6325;49.540;8.364;2023-03-04T02:59:31;0.50;99.90
12520;DHT22;6325;49.540;8.364;2023-03-04T03:01:59;0.60;99.90
12520;DHT22;6325;49.540;8.364;2023-03-04T03:04:27;0.50;99.90
12520;DHT22;6325;49.540;8.364;2023-03-04T03:06:54;0.10;99.90
12520;DHT22;6325;49.540;8.364;2023-03-04T03:09:21;0.70;99.90
12520;DHT22;6325;49.540;8.364;2023-03-04T03:11:48;0.30;99.90
12520;DHT22;6325;49.540;8.364;2023-03-04T03:14:15;0.20;99.90
12520;DHT22;6325;49.540;8.364;2023-03-04T03:16:42;0.30;99.90
12520;DHT22;6325;49.540;8.364;2023-03-04T03:19:10;0.40;99.90
12520;DHT22;6325;49.540;8.364;2023-03-04T03:21:38;0.70;99.90
12520;DHT22;6325;49.540;8.364;2023-03-04T03:24:05;-0.30;99.90
12520;DHT22;6325;49.540;8.364;2023-03-04T03:26:31;0.40;99.90
12520;DHT22;6325;49.540;8.364;2023-03-04T03:28:58;0.20;99.90
12520;DHT22;6325;49.540;8.364;2023-03-04T03:31:25;-0.20;99.90
12520;DHT22;6325;49.540;8.364;2023-03-04T03:33:52;0.20;99.90
12520;DHT22;6325;49.540;8.364;2023-03-04T03:36:21;0.00;99.90
12520;DHT22;6325;49.540;8.364;2023-03-04T03:38:47;-0.50;99.90
12520;DHT22;6325;49.540;8.364;2023-03-04T03:41:14;0.20;99.90
12520;DHT22;6325;49.540;8.364;2023-03-04T03:43:41;0.10;99.90
12520;DHT22;6325;49.540;8.364;2023-03-04T03:46:08;0.20;99.90
12520;DHT22;6325;49.540;8.364;2023-03-04T03:48:35;0.00;99.90
12520;DHT22;6325;49.540;8.364;2023-03-04T03:51:04;-0.10;99.90
12520;DHT22;6325;49.540;8.364;2023-03-04T03:53:33;-0.30;99.90
12520;DHT22;6325;49.540;8.364;2023-03-04T03:56:00;0.50;99.90
12520;DHT22;6325;49.540;8.364;2023-03-04T03:58:28;0.50;99.90
12520;DHT22;6325;49.540;8.364;2023-03-04T04:00:55;0.20;99.90
12520;DHT22;6325;49.540;8.364;2023-03-04T04:03:22;0.10;99.90
12520;DHT22;6325;49.540;8.364;2023-03-04T04:05:48;-0.80;99.90
12520;DHT22;6325;49.540;8.364;2023-03-04T04:08:18;0.10;99.90
12520;DHT22;6325;49.540;8.364;2023-03-04T04:10:46;-0.10;99.90
12520;DHT22;6325;49.540;8.364;2023-03-04T04:13:13;0.10;99.90
12520;DHT22;6325;49.540;8.364;2023-03-04T04:15:40;-0.20;99.90
12520;DHT22;6325;49.540;8.364;2023-03-04T04:18:08;0.30;99.90
12520;DHT22;6325;49.540;8.364;2023-03-04T04:20:35;0.10;99.90
12520;DHT22;6325;49.540;8.364;2023-03-04T04:23:02;-0.60;99.90
12520;DHT22;6325;49.540;8.364;2023-03-04T04:25:29;-0.30;99.90
12520;DHT22;6325;49.540;8.364;2023-03-04T04:27:58;-0.20;99.90
12520;DHT22;6325;49.540;8.364;2023-03-04T04:30:25;0.10;99.90
12520;DHT22;6325;49.540;8.364;2023-03-04T04:32:51;-0.10;99.90
12520;DHT22;6325;49.540;8.364;2023-03-04T04:35:18;-0.20;99.90
12520;DHT22;6325;49.540;8.364;2023-03-04T04:37:45;-0.20;99.90
12520;DHT22;6325;49.540;8.364;2023-03-04T04:40:12;-0.30;99.90
12520;DHT22;6325;49.540;8.364;2023-03-04T04:42:39;-0.70;99.90
12520;DHT22;6325;49.540;8.364;2023-03-04T04:45:09;-0.40;99.90
12520;DHT22;6325;49.540;8.364;2023-03-04T04:47:36;0.10;99.90
12520;DHT22;6325;49.540;8.364;2023-03-04T04:50:03;-0.20;99.90
12520;DHT22;6325;49.540;8.364;2023-03-04T04:52:30;-0.50;99.90
12520;DHT22;6325;49.540;8.364;2023-03-04T04:54:57;-0.70;99.90
12520;DHT22;6325;49.540;8.364;2023-03-04T04:57:24;-0.40;99.90
12520;DHT22;6325;49.540;8.364;2023-03-04T04:59:51;-0.20;99.90
12520;DHT22;6325;49.540;8.364;2023-03-04T05:02:20;-0.20;99.90
12520;DHT22;6325;49.540;8.364;2023-03-04T05:04:46;-0.10;99.90
12520;DHT22;6325;49.540;8.364;2023-03-04T05:07:14;-0.30;99.90
12520;DHT22;6325;49.540;8.364;2023-03-04T05:09:41;-0.40;99.90
12520;DHT22;6325;49.540;8.364;2023-03-04T05:12:08;-0.30;99.90
12520;DHT22;6325;49.540;8.364;2023-03-04T05:14:35;-0.90;99.90
12520;DHT22;6325;49.540;8.364;2023-03-04T05:17:02;-0.20;99.90
12520;DHT22;6325;49.540;8.364;2023-03-04T05:19:31;-0.10;99.90
12520;DHT22;6325;49.540;8.364;2023-03-04T05:21:58;0.00;99.90
12520;DHT22;6325;49.540;8.364;2023-03-04T05:24:24;0.20;99.90
12520;DHT22;6325;49.540;8.364;2023-03-04T05:26:51;0.20;99.90
12520;DHT22;6325;49.540;8.364;2023-03-04T05:29:18;0.20;99.90
12520;DHT22;6325;49.540;8.364;2023-03-04T05:31:46;0.30;99.90
12520;DHT22;6325;49.540;8.364;2023-03-04T05:34:12;0.40;99.90
12520;DHT22;6325;49.540;8.364;2023-03-04T05:36:41;0.30;99.90
12520;DHT22;6325;49.540;8.364;2023-03-04T05:39:08;0.30;99.90
12520;DHT22;6325;49.540;8.364;2023-03-04T05:41:34;0.10;99.90
12520;DHT22;6325;49.540;8.364;2023-03-04T05:44:01;0.50;99.90
12520;DHT22;6325;49.540;8.364;2023-03-04T05:46:28;1.10;99.90
12520;DHT22;6325;49.540;8.364;2023-03-04T05:48:55;0.20;99.90
12520;DHT22;6325;49.540;8.364;2023-03-04T05:51:22;0.70;99.90
12520;DHT22;6325;49.540;8.364;2023-03-04T05:53:50;0.20;99.90
12520;DHT22;6325;49.540;8.364;2023-03-04T05:56:19;0.40;99.90
12520;DHT22;6325;49.540;8.364;2023-03-04T05:58:46;0.50;99.90
12520;DHT22;6325;49.540;8.364;2023-03-04T06:01:13;1.00;99.90
12520;DHT22;6325;49.540;8.364;2023-03-04T06:03:40;0.40;99.90
12520;DHT22;6325;49.540;8.364;2023-03-04T06:06:08;0.60;99.90
12520;DHT22;6325;49.540;8.364;2023-03-04T06:08:35;0.90;99.90
12520;DHT22;6325;49.540;8.364;2023-03-04T06:11:03;0.60;99.90
12520;DHT22;6325;49.540;8.364;2023-03-04T06:13:30;0.60;99.90
12520;DHT22;6325;49.540;8.364;2023-03-04T06:15:58;1.30;99.90
12520;DHT22;6325;49.540;8.364;2023-03-04T06:18:26;0.80;99.90
12520;DHT22;6325;49.540;8.364;2023-03-04T06:20:55;0.50;99.90
12520;DHT22;6325;49.540;8.364;2023-03-04T06:23:24;0.90;99.90
12520;DHT22;6325;49.540;8.364;2023-03-04T06:25:53;0.50;99.90
12520;DHT22;6325;49.540;8.364;2023-03-04T06:28:22;1.20;99.90
12520;DHT22;6325;49.540;8.364;2023-03-04T06:30:50;1.40;99.90
12520;DHT22;6325;49.540;8.364;2023-03-04T06:33:17;1.10;99.90
12520;DHT22;6325;49.540;8.364;2023-03-04T06:35:44;0.90;99.90
12520;DHT22;6325;49.540;8.364;2023-03-04T06:38:11;1.80;99.90
12520;DHT22;6325;49.540;8.364;2023-03-04T06:40:38;0.90;99.90
12520;DHT22;6325;49.540;8.364;2023-03-04T06:43:05;1.40;99.90
12520;DHT22;6325;49.540;8.364;2023-03-04T06:45:34;1.40;99.90
12520;DHT22;6325;49.540;8.364;2023-03-04T06:48:00;1.70;99.90
12520;DHT22;6325;49.540;8.364;2023-03-04T06:50:28;1.80;99.90
12520;DHT22;6325;49.540;8.364;2023-03-04T06:52:58;2.00;99.90
12520;DHT22;6325;49.540;8.364;2023-03-04T06:55:25;1.70;99.90
12520;DHT22;6325;49.540;8.364;2023-03-04T06:57:54;2.00;99.90
12520;DHT22;6325;49.540;8.364;2023-03-04T07:00:21;2.00;99.90
12520;DHT22;6325;49.540;8.364;2023-03-04T07:02:50;2.00;99.90
12520;DHT22;6325;49.540;8.364;2023-03-04T07:05:17;2.20;99.90
12520;DHT22;6325;49.540;8.364;2023-03-04T07:07:44;1.80;99.90
12520;DHT22;6325;49.540;8.364;2023-03-04T07:10:11;2.10;99.90
12520;DHT22;6325;49.540;8.364;2023-03-04T07:12:38;2.00;99.90
12520;DHT22;6325;49.540;8.364;2023-03-04T07:15:06;2.20;99.90
12520;DHT22;6325;49.540;8.364;2023-03-04T07:17:33;2.30;99.90
12520;DHT22;6325;49.540;8.364;2023-03-04T07:20:02;2.40;99.90
12520;DHT22;6325;49.540;8.364;2023-03-04T07:22:29;2.20;99.90
12520;DHT22;6325;49.540;8.364;2023-03-04T07:24:56;2.10;99.90
12520;DHT22;6325;49.540;8.364;2023-03-04T07:27:23;2.50;99.90
12520;DHT22;6325;49.540;8.364;2023-03-04T07:29:50;2.90;99.90
12520;DHT22;6325;49.540;8.364;2023-03-04T07:32:17;2.60;99.90
12520;DHT22;6325;49.540;8.364;2023-03-04T07:34:44;2.70;99.90
12520;DHT22;6325;49.540;8.364;2023-03-04T07:37:12;2.40;99.90
12520;DHT22;6325;49.540;8.364;2023-03-04T07:39:39;2.00;99.90
12520;DHT22;6325;49.540;8.364;2023-03-04T07:42:06;2.70;99.90
12520;DHT22;6325;49.540;8.364;2023-03-04T07:44:33;2.60;99.90
12520;DHT22;6325;49.540;8.364;2023-03-04T07:46:59;2.80;99.90
12520;DHT22;6325;49.540;8.364;2023-03-04T07:49:26;2.10;99.90
12520;DHT22;6325;49.540;8.364;2023-03-04T07:51:54;3.40;99.90
12520;DHT22;6325;49.540;8.364;2023-03-04T07:54:22;3.30;99.90
12520;DHT22;6325;49.540;8.364;2023-03-04T07:56:51;3.00;99.90
12520;DHT22;6325;49.540;8.364;2023-03-04T07:59:18;2.20;99.90
12520;DHT22;6325;49.540;8.364;2023-03-04T08:01:45;3.50;99.90
12520;DHT22;6325;49.540;8.364;2023-03-04T08:04:11;3.10;99.90
12520;DHT22;6325;49.540;8.364;2023-03-04T08:06:39;3.10;99.90
12520;DHT22;6325;49.540;8.364;2023-03-04T08:09:07;3.30;99.90
12520;DHT22;6325;49.540;8.364;2023-03-04T08:11:36;3.70;99.90
12520;DHT22;6325;49.540;8.364;2023-03-04T08:14:04;3.70;99.90
12520;DHT22;6325;49.540;8.364;2023-03-04T08:16:31;3.40;99.90
12520;DHT22;6325;49.540;8.364;2023-03-04T08:19:00;3.80;99.90
12520;DHT22;6325;49.540;8.364;2023-03-04T08:21:28;3.60;99.90
12520;DHT22;6325;49.540;8.364;2023-03-04T08:23:56;2.80;99.90
12520;DHT22;6325;49.540;8.364;2023-03-04T08:26:26;3.50;99.90
12520;DHT22;6325;49.540;8.364;2023-03-04T08:28:55;3.40;99.90
12520;DHT22;6325;49.540;8.364;2023-03-04T08:31:22;3.50;99.90
12520;DHT22;6325;49.540;8.364;2023-03-04T08:33:49;3.60;99.90
12520;DHT22;6325;49.540;8.364;2023-03-04T08:36:17;4.00;99.90
12520;DHT22;6325;49.540;8.364;2023-03-04T08:38:44;3.80;99.90
12520;DHT22;6325;49.540;8.364;2023-03-04T08:41:12;3.80;99.90
12520;DHT22;6325;49.540;8.364;2023-03-04T08:43:40;3.80;99.90
12520;DHT22;6325;49.540;8.364;2023-03-04T08:46:08;4.30;99.90
12520;DHT22;6325;49.540;8.364;2023-03-04T08:48:36;4.00;99.90
12520;DHT22;6325;49.540;8.364;2023-03-04T08:51:06;3.70;99.90
12520;DHT22;6325;49.540;8.364;2023-03-04T08:53:33;3.50;99.90
12520;DHT22;6325;49.540;8.364;2023-03-04T08:56:00;4.80;99.90
12520;DHT22;6325;49.540;8.364;2023-03-04T08:58:27;4.30;99.90
12520;DHT22;6325;49.540;8.364;2023-03-04T09:00:54;4.70;99.90
12520;DHT22;6325;49.540;8.364;2023-03-04T09:03:22;4.50;99.90
12520;DHT22;6325;49.540;8.364;2023-03-04T09:05:49;4.80;99.90
12520;DHT22;6325;49.540;8.364;2023-03-04T09:08:16;4.60;99.90
12520;DHT22;6325;49.540;8.364;2023-03-04T09:10:45;4.30;99.90
12520;DHT22;6325;49.540;8.364;2023-03-04T09:13:12;4.90;99.90
12520;DHT22;6325;49.540;8.364;2023-03-04T09:15:43;4.60;99.90
12520;DHT22;6325;49.540;8.364;2023-03-04T09:18:11;4.50;99.90
12520;DHT22;6325;49.540;8.364;2023-03-04T09:20:39;4.80;99.90
12520;DHT22;6325;49.540;8.364;2023-03-04T09:23:06;5.30;99.90
12520;DHT22;6325;49.540;8.364;2023-03-04T09:25:35;4.80;99.90
12520;DHT22;6325;49.540;8.364;2023-03-04T09:28:02;5.00;99.90
12520;DHT22;6325;49.540;8.364;2023-03-04T09:30:29;5.00;99.90
12520;DHT22;6325;49.540;8.364;2023-03-04T09:32:56;5.30;99.90
12520;DHT22;6325;49.540;8.364;2023-03-04T09:35:23;5.20;99.90
12520;DHT22;6325;49.540;8.364;2023-03-04T09:37:51;5.00;99.90
12520;DHT22;6325;49.540;8.364;2023-03-04T09:40:21;4.70;99.90
12520;DHT22;6325;49.540;8.364;2023-03-04T09:42:51;5.40;99.90
12520;DHT22;6325;49.540;8.364;2023-03-04T09:45:21;5.70;99.90
12520;DHT22;6325;49.540;8.364;2023-03-04T09:47:50;5.10;99.90
12520;DHT22;6325;49.540;8.364;2023-03-04T09:50:19;5.90;99.90
12520;DHT22;6325;49.540;8.364;2023-03-04T09:52:59;5.40;99.90
12520;DHT22;6325;49.540;8.364;2023-03-04T09:55:34;5.20;99.90
12520;DHT22;6325;49.540;8.364;2023-03-04T09:58:06;5.80;99.90
12520;DHT22;6325;49.540;8.364;2023-03-04T10:00:42;5.60;99.90
12520;DHT22;6325;49.540;8.364;2023-03-04T10:03:15;5.30;99.90
12520;DHT22;6325;49.540;8.364;2023-03-04T10:05:50;5.50;99.90
12520;DHT22;6325;49.540;8.364;2023-03-04T10:08:37;5.80;99.90
12520;DHT22;6325;49.540;8.364;2023-03-04T10:11:12;5.80;99.90
12520;DHT22;6325;49.540;8.364;2023-03-04T10:13:49;5.50;99.90
12520;DHT22;6325;49.540;8.364;2023-03-04T10:16:20;5.90;99.90
12520;DHT22;6325;49.540;8.364;2023-03-04T10:18:52;5.40;99.90
12520;DHT22;6325;49.540;8.364;2023-03-04T10:21:23;5.50;99.90
12520;DHT22;6325;49.540;8.364;2023-03-04T10:23:53;5.70;99.90
12520;DHT22;6325;49.540;8.364;2023-03-04T10:26:21;6.20;99.90
12520;DHT22;6325;49.540;8.364;2023-03-04T10:28:50;5.80;99.90
12520;DHT22;6325;49.540;8.364;2023-03-04T10:31:20;6.20;99.90
12520;DHT22;6325;49.540;8.364;2023-03-04T10:33:52;5.80;99.90
12520;DHT22;6325;49.540;8.364;2023-03-04T10:36:32;6.30;99.90
12520;DHT22;6325;49.540;8.364;2023-03-04T10:39:07;5.60;99.90
12520;DHT22;6325;49.540;8.364;2023-03-04T10:41:35;5.70;99.90
12520;DHT22;6325;49.540;8.364;2023-03-04T10:44:04;5.90;99.90
12520;DHT22;6325;49.540;8.364;2023-03-04T10:46:40;6.10;99.90
12520;DHT22;6325;49.540;8.364;2023-03-04T10:49:09;6.00;99.90
12520;DHT22;6325;49.540;8.364;2023-03-04T10:51:42;5.40;99.90
12520;DHT22;6325;49.540;8.364;2023-03-04T10:54:21;5.70;99.90
12520;DHT22;6325;49.540;8.364;2023-03-04T10:56:57;5.90;99.90
12520;DHT22;6325;49.540;8.364;2023-03-04T10:59:34;5.90;99.90
12520;DHT22;6325;49.540;8.364;2023-03-04T11:02:14;6.10;99.90
12520;DHT22;6325;49.540;8.364;2023-03-04T11:04:41;5.70;99.90
12520;DHT22;6325;49.540;8.364;2023-03-04T11:07:08;6.00;99.90
12520;DHT22;6325;49.540;8.364;2023-03-04T11:09:37;6.40;99.90
12520;DHT22;6325;49.540;8.364;2023-03-04T11:12:10;5.90;99.90
12520;DHT22;6325;49.540;8.364;2023-03-04T11:14:39;6.20;99.90
12520;DHT22;6325;49.540;8.364;2023-03-04T11:17:27;6.80;99.90
12520;DHT22;6325;49.540;8.364;2023-03-04T11:20:00;6.00;99.90
12520;DHT22;6325;49.540;8.364;2023-03-04T11:22:31;6.40;99.90
12520;DHT22;6325;49.540;8.364;2023-03-04T11:25:04;6.90;99.90
12520;DHT22;6325;49.540;8.364;2023-03-04T11:27:41;6.50;99.90
12520;DHT22;6325;49.540;8.364;2023-03-04T11:30:25;7.00;99.90
12520;DHT22;6325;49.540;8.364;2023-03-04T11:32:59;6.70;99.90
12520;DHT22;6325;49.540;8.364;2023-03-04T11:35:33;6.10;99.90
12520;DHT22;6325;49.540;8.364;2023-03-04T11:38:05;6.50;99.90
12520;DHT22;6325;49.540;8.364;2023-03-04T11:40:42;6.60;99.90
12520;DHT22;6325;49.540;8.364;2023-03-04T11:43:14;6.80;99.90
12520;DHT22;6325;49.540;8.364;2023-03-04T11:46:08;6.80;99.90
12520;DHT22;6325;49.540;8.364;2023-03-04T11:48:48;6.90;99.90
12520;DHT22;6325;49.540;8.364;2023-03-04T11:51:22;7.00;99.90
12520;DHT22;6325;49.540;8.364;2023-03-04T11:53:57;7.10;99.90
12520;DHT22;6325;49.540;8.364;2023-03-04T11:56:31;6.80;99.90
12520;DHT22;6325;49.540;8.364;2023-03-04T12:02:10;6.90;99.90
12520;DHT22;6325;49.540;8.364;2023-03-04T12:04:59;6.70;99.90
12520;DHT22;6325;49.540;8.364;2023-03-04T12:07:49;7.20;99.90
12520;DHT22;6325;49.540;8.364;2023-03-04T12:10:23;6.40;99.90
12520;DHT22;6325;49.540;8.364;2023-03-04T12:13:06;6.70;99.90
12520;DHT22;6325;49.540;8.364;2023-03-04T12:15:39;6.70;99.90
12520;DHT22;6325;49.540;8.364;2023-03-04T12:18:32;7.00;99.90
12520;DHT22;6325;49.540;8.364;2023-03-04T12:21:16;7.20;99.90
12520;DHT22;6325;49.540;8.364;2023-03-04T12:24:02;6.80;99.90
12520;DHT22;6325;49.540;8.364;2023-03-04T12:26:37;6.90;99.90
12520;DHT22;6325;49.540;8.364;2023-03-04T12:29:12;6.70;99.90
12520;DHT22;6325;49.540;8.364;2023-03-04T12:31:42;6.50;99.90
12520;DHT22;6325;49.540;8.364;2023-03-04T12:34:32;7.00;99.90
12520;DHT22;6325;49.540;8.364;2023-03-04T12:37:22;6.90;99.90
12520;DHT22;6325;49.540;8.364;2023-03-04T12:40:11;6.60;99.90
12520;DHT22;6325;49.540;8.364;2023-03-04T12:42:53;6.70;99.90
12520;DHT22;6325;49.540;8.364;2023-03-04T12:45:27;6.90;99.90
12520;DHT22;6325;49.540;8.364;2023-03-04T12:48:01;6.20;99.90
12520;DHT22;6325;49.540;8.364;2023-03-04T12:50:36;7.10;99.90
12520;DHT22;6325;49.540;8.364;2023-03-04T12:53:13;7.20;99.90
12520;DHT22;6325;49.540;8.364;2023-03-04T12:55:44;6.50;99.90
12520;DHT22;6325;49.540;8.364;2023-03-04T12:58:15;6.20;99.90
12520;DHT22;6325;49.540;8.364;2023-03-04T13:00:54;6.70;99.90
12520;DHT22;6325;49.540;8.364;2023-03-04T13:03:27;5.90;99.90
12520;DHT22;6325;49.540;8.364;2023-03-04T13:06:09;6.60;99.90
12520;DHT22;6325;49.540;8.364;2023-03-04T13:08:47;6.90;99.90
12520;DHT22;6325;49.540;8.364;2023-03-04T13:11:31;6.00;99.90
12520;DHT22;6325;49.540;8.364;2023-03-04T13:14:03;6.60;99.90
12520;DHT22;6325;49.540;8.364;2023-03-04T13:16:35;6.60;99.90
12520;DHT22;6325;49.540;8.364;2023-03-04T13:22:26;6.00;99.90
12520;DHT22;6325;49.540;8.364;2023-03-04T13:24:54;6.70;99.90
12520;DHT22;6325;49.540;8.364;2023-03-04T13:27:44;6.60;99.90
12520;DHT22;6325;49.540;8.364;2023-03-04T13:39:33;6.40;99.90
12520;DHT22;6325;49.540;8.364;2023-03-04T13:42:02;6.50;99.90
12520;DHT22;6325;49.540;8.364;2023-03-04T13:44:56;6.50;99.90
12520;DHT22;6325;49.540;8.364;2023-03-04T13:47:31;6.30;99.90
12520;DHT22;6325;49.540;8.364;2023-03-04T13:50:22;6.60;99.90
12520;DHT22;6325;49.540;8.364;2023-03-04T13:52:51;6.70;99.90
12520;DHT22;6325;49.540;8.364;2023-03-04T13:55:34;6.70;99.90
12520;DHT22;6325;49.540;8.364;2023-03-04T13:58:14;6.40;99.90
12520;DHT22;6325;49.540;8.364;2023-03-04T14:00:47;6.90;99.90
12520;DHT22;6325;49.540;8.364;2023-03-04T14:03:21;6.60;99.90
12520;DHT22;6325;49.540;8.364;2023-03-04T14:06:11;6.50;99.90
12520;DHT22;6325;49.540;8.364;2023-03-04T14:08:39;6.60;99.90
12520;DHT22;6325;49.540;8.364;2023-03-04T14:11:14;6.60;99.90
12520;DHT22;6325;49.540;8.364;2023-03-04T14:13:42;6.30;99.90
12520;DHT22;6325;49.540;8.364;2023-03-04T14:16:09;6.80;99.90
12520;DHT22;6325;49.540;8.364;2023-03-04T14:18:36;6.60;99.90
12520;DHT22;6325;49.540;8.364;2023-03-04T14:21:05;6.60;99.90
12520;DHT22;6325;49.540;8.364;2023-03-04T14:23:33;6.10;99.90
12520;DHT22;6325;49.540;8.364;2023-03-04T14:26:09;6.60;99.90
12520;DHT22;6325;49.540;8.364;2023-03-04T14:28:44;6.70;99.90
12520;DHT22;6325;49.540;8.364;2023-03-04T14:31:17;7.10;99.90
12520;DHT22;6325;49.540;8.364;2023-03-04T14:33:47;6.60;99.90
12520;DHT22;6325;49.540;8.364;2023-03-04T14:36:17;6.80;99.90
12520;DHT22;6325;49.540;8.364;2023-03-04T14:38:50;6.30;99.90
12520;DHT22;6325;49.540;8.364;2023-03-04T14:41:23;6.90;99.90
12520;DHT22;6325;49.540;8.364;2023-03-04T14:44:05;7.30;99.90
12520;DHT22;6325;49.540;8.364;2023-03-04T14:46:37;7.60;99.90
12520;DHT22;6325;49.540;8.364;2023-03-04T14:49:08;7.30;99.90
12520;DHT22;6325;49.540;8.364;2023-03-04T14:51:44;7.50;99.90
12520;DHT22;6325;49.540;8.364;2023-03-04T14:54:33;7.60;99.90
12520;DHT22;6325;49.540;8.364;2023-03-04T14:57:20;7.20;99.90
12520;DHT22;6325;49.540;8.364;2023-03-04T14:59:48;7.70;99.90
12520;DHT22;6325;49.540;8.364;2023-03-04T15:02:23;7.40;99.90
12520;DHT22;6325;49.540;8.364;2023-03-04T15:04:56;7.20;99.90
12520;DHT22;6325;49.540;8.364;2023-03-04T15:07:29;7.30;99.90
12520;DHT22;6325;49.540;8.364;2023-03-04T15:09:57;7.50;99.90
12520;DHT22;6325;49.540;8.364;2023-03-04T15:12:28;7.10;99.90
12520;DHT22;6325;49.540;8.364;2023-03-04T15:14:56;7.60;99.90
12520;DHT22;6325;49.540;8.364;2023-03-04T15:17:30;7.10;99.90
12520;DHT22;6325;49.540;8.364;2023-03-04T15:20:20;6.60;99.90
12520;DHT22;6325;49.540;8.364;2023-03-04T15:23:04;7.20;99.90
12520;DHT22;6325;49.540;8.364;2023-03-04T15:25:33;7.60;99.90
12520;DHT22;6325;49.540;8.364;2023-03-04T15:28:03;7.70;99.90
12520;DHT22;6325;49.540;8.364;2023-03-04T15:30:32;7.30;99.90
12520;DHT22;6325;49.540;8.364;2023-03-04T15:32:59;7.60;99.90
12520;DHT22;6325;49.540;8.364;2023-03-04T15:35:29;7.20;99.90
12520;DHT22;6325;49.540;8.364;2023-03-04T15:37:57;7.30;99.90
12520;DHT22;6325;49.540;8.364;2023-03-04T15:40:29;7.20;99.90
12520;DHT22;6325;49.540;8.364;2023-03-04T15:42:58;7.40;99.90
12520;DHT22;6325;49.540;8.364;2023-03-04T15:45:32;7.30;99.90
12520;DHT22;6325;49.540;8.364;2023-03-04T15:48:01;6.70;99.90
12520;DHT22;6325;49.540;8.364;2023-03-04T15:50:29;6.80;99.90
12520;DHT22;6325;49.540;8.364;2023-03-04T15:52:58;7.00;99.90
12520;DHT22;6325;49.540;8.364;2023-03-04T15:55:27;6.90;99.90
12520;DHT22;6325;49.540;8.364;2023-03-04T15:57:56;7.10;99.90
12520;DHT22;6325;49.540;8.364;2023-03-04T16:00:25;7.20;99.90
12520;DHT22;6325;49.540;8.364;2023-03-04T16:02:53;6.90;99.90
12520;DHT22;6325;49.540;8.364;2023-03-04T16:05:20;6.90;99.90
12520;DHT22;6325;49.540;8.364;2023-03-04T16:07:48;6.90;99.90
12520;DHT22;6325;49.540;8.364;2023-03-04T16:10:20;7.00;99.90
12520;DHT22;6325;49.540;8.364;2023-03-04T16:12:48;6.80;99.90
12520;DHT22;6325;49.540;8.364;2023-03-04T16:15:17;6.90;99.90
12520;DHT22;6325;49.540;8.364;2023-03-04T16:17:44;6.90;99.90
12520;DHT22;6325;49.540;8.364;2023-03-04T16:20:15;7.10;99.90
12520;DHT22;6325;49.540;8.364;2023-03-04T16:22:45;6.80;99.90
12520;DHT22;6325;49.540;8.364;2023-03-04T16:25:14;6.70;99.90
12520;DHT22;6325;49.540;8.364;2023-03-04T16:27:41;6.30;99.90
12520;DHT22;6325;49.540;8.364;2023-03-04T16:30:12;7.30;99.90
12520;DHT22;6325;49.540;8.364;2023-03-04T16:32:40;7.20;99.90
12520;DHT22;6325;49.540;8.364;2023-03-04T16:35:07;7.50;99.90